sensor_id;sensor_type;location;lat;lon;timestamp;temperature;humidity
28171;DHT22;15458;53.346;-1.688;2023-05-07T00:01:54;13.20;99.90
28171;DHT22;15458;53.346;-1.688;2023-05-07T00:04:19;13.20;99.90
28171;DHT22;15458;53.346;-1.688;2023-05-07T00:06:46;13.30;99.90
28171;DHT22;15458;53.346;-1.688;2023-05-07T00:09:11;13.30;99.90
28171;DHT22;15458;53.346;-1.688;2023-05-07T00:11:37;13.20;99.90
28171;DHT22;15458;53.346;-1.688;2023-05-07T00:14:02;13.20;99.90
28171;DHT22;15458;53.346;-1.688;2023-05-07T00:16:28;13.30;99.90
28171;DHT22;15458;53.346;-1.688;2023-05-07T00:18:54;13.20;99.90
28171;DHT22;15458;53.346;-1.688;2023-05-07T00:21:19;13.20;99.90
28171;DHT22;15458;53.346;-1.688;2023-05-07T00:23:46;13.30;99.90
28171;DHT22;15458;53.346;-1.688;2023-05-07T00:26:15;13.20;99.90
28171;DHT22;15458;53.346;-1.688;2023-05-07T00:28:41;13.20;99.90
28171;DHT22;15458;53.346;-1.688;2023-05-07T00:31:09;13.20;99.90
28171;DHT22;15458;53.346;-1.688;2023-05-07T00:33:35;13.10;99.90
28171;DHT22;15458;53.346;-1.688;2023-05-07T00:36:01;13.10;99.90
28171;DHT22;15458;53.346;-1.688;2023-05-07T00:38:28;13.10;99.90
28171;DHT22;15458;53.346;-1.688;2023-05-07T00:40:54;13.10;99.90
28171;DHT22;15458;53.346;-1.688;2023-05-07T00:43:19;13.10;99.90
28171;DHT22;15458;53.346;-1.688;2023-05-07T00:45:45;13.10;99.90
28171;DHT22;15458;53.346;-1.688;2023-05-07T00:48:11;13.20;99.90
28171;DHT22;15458;53.346;-1.688;2023-05-07T00:50:36;13.20;99.90
28171;DHT22;15458;53.346;-1.688;2023-05-07T00:53:02;13.20;99.90
28171;DHT22;15458;53.346;-1.688;2023-05-07T00:55:28;13.20;99.90
28171;DHT22;15458;53.346;-1.688;2023-05-07T00:57:54;13.10;99.90
28171;DHT22;15458;53.346;-1.688;2023-05-07T01:00:19;13.20;99.90
28171;DHT22;15458;53.346;-1.688;2023-05-07T01:02:45;13.10;99.90
28171;DHT22;15458;53.346;-1.688;2023-05-07T01:05:15;13.10;99.90
28171;DHT22;15458;53.346;-1.688;2023-05-07T01:07:42;13.10;99.90
28171;DHT22;15458;53.346;-1.688;2023-05-07T01:10:09;13.10;99.90
28171;DHT22;15458;53.346;-1.688;2023-05-07T01:12:36;13.20;99.90
28171;DHT22;15458;53.346;-1.688;2023-05-07T01:15:03;13.10;99.90
28171;DHT22;15458;53.346;-1.688;2023-05-07T01:17:32;13.10;99.90
28171;DHT22;15458;53.346;-1.688;2023-05-07T01:19:58;13.10;99.90
28171;DHT22;15458;53.346;-1.688;2023-05-07T01:24:58;13.10;99.90
28171;DHT22;15458;53.346;-1.688;2023-05-07T01:27:25;13.10;99.90
28171;DHT22;15458;53.346;-1.688;2023-05-07T01:29:51;13.10;99.90
28171;DHT22;15458;53.346;-1.688;2023-05-07T01:32:21;13.10;99.90
28171;DHT22;15458;53.346;-1.688;2023-05-07T01:34:48;13.10;99.90
28171;DHT22;15458;53.346;-1.688;2023-05-07T01:37:15;13.10;99.90
28171;DHT22;15458;53.346;-1.688;2023-05-07T01:39:42;13.00;99.90
28171;DHT22;15458;53.346;-1.688;2023-05-07T01:42:10;13.10;99.90
28171;DHT22;15458;53.346;-1.688;2023-05-07T01:44:36;13.10;99.90
28171;DHT22;15458;53.346;-1.688;2023-05-07T01:47:02;13.10;99.90
28171;DHT22;15458;53.346;-1.688;2023-05-07T01:49:29;13.10;99.90
28171;DHT22;15458;53.346;-1.688;2023-05-07T01:51:56;13.10;99.90
28171;DHT22;15458;53.346;-1.688;2023-05-07T01:54:25;13.10;99.90
28171;DHT22;15458;53.346;-1.688;2023-05-07T01:56:53;13.10;99.90
28171;DHT22;15458;53.346;-1.688;2023-05-07T01:59:18;13.10;99.90
28171;DHT22;15458;53.346;-1.688;2023-05-07T02:01:44;13.10;99.90
28171;DHT22;15458;53.346;-1.688;2023-05-07T02:04:10;13.10;99.90
28171;DHT22;15458;53.346;-1.688;2023-05-07T02:06:35;13.10;99.90
28171;DHT22;15458;53.346;-1.688;2023-05-07T02:09:01;13.10;99.90
28171;DHT22;15458;53.346;-1.688;2023-05-07T02:11:27;13.10;99.90
28171;DHT22;15458;53.346;-1.688;2023-05-07T02:13:52;13.10;99.90
28171;DHT22;15458;53.346;-1.688;2023-05-07T02:16:18;13.10;99.90
28171;DHT22;15458;53.346;-1.688;2023-05-07T02:18:45;13.10;99.90
28171;DHT22;15458;53.346;-1.688;2023-05-07T02:21:10;13.00;99.90
28171;DHT22;15458;53.346;-1.688;2023-05-07T02:23:36;13.10;99.90
28171;DHT22;15458;53.346;-1.688;2023-05-07T02:26:03;13.00;99.90
28171;DHT22;15458;53.346;-1.688;2023-05-07T02:28:28;13.00;99.90
28171;DHT22;15458;53.346;-1.688;2023-05-07T02:30:54;13.00;99.90
28171;DHT22;15458;53.346;-1.688;2023-05-07T02:33:20;13.00;99.90
28171;DHT22;15458;53.346;-1.688;2023-05-07T02:35:45;13.00;99.90
28171;DHT22;15458;53.346;-1.688;2023-05-07T02:38:11;13.00;99.90
28171;DHT22;15458;53.346;-1.688;2023-05-07T02:40:37;13.00;99.90
28171;DHT22;15458;53.346;-1.688;2023-05-07T02:43:05;13.00;99.90
28171;DHT22;15458;53.346;-1.688;2023-05-07T02:45:32;13.00;99.90
28171;DHT22;15458;53.346;-1.688;2023-05-07T02:47:58;12.90;99.90
28171;DHT22;15458;53.346;-1.688;2023-05-07T02:50:23;12.90;99.90
28171;DHT22;15458;53.346;-1.688;2023-05-07T02:52:49;12.90;99.90
28171;DHT22;15458;53.346;-1.688;2023-05-07T02:55:15;12.90;99.90
28171;DHT22;15458;53.346;-1.688;2023-05-07T02:57:41;12.90;99.90
28171;DHT22;15458;53.346;-1.688;2023-05-07T03:00:18;12.90;99.90
28171;DHT22;15458;53.346;-1.688;2023-05-07T03:02:44;12.90;99.90
28171;DHT22;15458;53.346;-1.688;2023-05-07T03:05:13;12.90;99.90
28171;DHT22;15458;53.346;-1.688;2023-05-07T03:07:39;12.90;99.90
28171;DHT22;15458;53.346;-1.688;2023-05-07T03:10:06;12.90;99.90
28171;DHT22;15458;53.346;-1.688;2023-05-07T03:12:32;12.90;99.90
28171;DHT22;15458;53.346;-1.688;2023-05-07T03:14:58;12.90;99.90
28171;DHT22;15458;53.346;-1.688;2023-05-07T03:17:23;12.90;99.90
28171;DHT22;15458;53.346;-1.688;2023-05-07T03:19:49;12.90;99.90
28171;DHT22;15458;53.346;-1.688;2023-05-07T03:22:15;12.90;99.90
28171;DHT22;15458;53.346;-1.688;2023-05-07T03:24:40;12.90;99.90
28171;DHT22;15458;53.346;-1.688;2023-05-07T03:27:06;12.90;99.90
28171;DHT22;15458;53.346;-1.688;2023-05-07T03:29:32;12.90;99.90
28171;DHT22;15458;53.346;-1.688;2023-05-07T03:31:58;12.90;99.90
28171;DHT22;15458;53.346;-1.688;2023-05-07T03:34:23;12.90;99.90
28171;DHT22;15458;53.346;-1.688;2023-05-07T03:36:49;13.00;99.90
28171;DHT22;15458;53.346;-1.688;2023-05-07T03:39:15;13.00;99.90
28171;DHT22;15458;53.346;-1.688;2023-05-07T03:41:40;13.10;99.90
28171;DHT22;15458;53.346;-1.688;2023-05-07T03:44:06;13.10;99.90
28171;DHT22;15458;53.346;-1.688;2023-05-07T03:46:32;13.10;99.90
28171;DHT22;15458;53.346;-1.688;2023-05-07T03:48:58;13.20;99.90
28171;DHT22;15458;53.346;-1.688;2023-05-07T03:51:24;13.10;99.90
28171;DHT22;15458;53.346;-1.688;2023-05-07T03:53:50;13.10;99.90
28171;DHT22;15458;53.346;-1.688;2023-05-07T03:56:18;13.20;99.90
28171;DHT22;15458;53.346;-1.688;2023-05-07T03:58:44;13.20;99.90
28171;DHT22;15458;53.346;-1.688;2023-05-07T04:01:10;13.20;99.90
28171;DHT22;15458;53.346;-1.688;2023-05-07T04:03:36;13.20;99.90
28171;DHT22;15458;53.346;-1.688;2023-05-07T04:06:02;13.20;99.90
28171;DHT22;15458;53.346;-1.688;2023-05-07T04:08:28;13.20;99.90
28171;DHT22;15458;53.346;-1.688;2023-05-07T04:10:57;13.20;99.90
28171;DHT22;15458;53.346;-1.688;2023-05-07T04:13:23;13.20;99.90
28171;DHT22;15458;53.346;-1.688;2023-05-07T04:15:48;13.10;99.90
28171;DHT22;15458;53.346;-1.688;2023-05-07T04:18:15;13.10;99.90
28171;DHT22;15458;53.346;-1.688;2023-05-07T04:20:41;13.10;99.90
28171;DHT22;15458;53.346;-1.688;2023-05-07T04:23:07;13.10;99.90
28171;DHT22;15458;53.346;-1.688;2023-05-07T04:25:32;13.10;99.90
28171;DHT22;15458;53.346;-1.688;2023-05-07T04:27:58;13.00;99.90
28171;DHT22;15458;53.346;-1.688;2023-05-07T04:30:24;13.00;99.90
28171;DHT22;15458;53.346;-1.688;2023-05-07T04:32:50;13.00;99.90
28171;DHT22;15458;53.346;-1.688;2023-05-07T04:35:16;13.00;99.90
28171;DHT22;15458;53.346;-1.688;2023-05-07T04:37:42;13.00;99.90
28171;DHT22;15458;53.346;-1.688;2023-05-07T04:40:08;13.00;99.90
28171;DHT22;15458;53.346;-1.688;2023-05-07T04:42:34;13.00;99.90
28171;DHT22;15458;53.346;-1.688;2023-05-07T04:44:59;13.00;99.90
28171;DHT22;15458;53.346;-1.688;2023-05-07T04:47:26;13.00;99.90
28171;DHT22;15458;53.346;-1.688;2023-05-07T04:49:52;13.00;99.90
28171;DHT22;15458;53.346;-1.688;2023-05-07T04:52:17;13.00;99.90
28171;DHT22;15458;53.346;-1.688;2023-05-07T04:54:46;13.00;99.90
28171;DHT22;15458;53.346;-1.688;2023-05-07T04:57:11;13.00;99.90
28171;DHT22;15458;53.346;-1.688;2023-05-07T04:59:37;13.00;99.90
28171;DHT22;15458;53.346;-1.688;2023-05-07T05:02:03;12.90;99.90
28171;DHT22;15458;53.346;-1.688;2023-05-07T05:04:30;13.00;99.90
28171;DHT22;15458;53.346;-1.688;2023-05-07T05:06:55;12.90;99.90
28171;DHT22;15458;53.346;-1.688;2023-05-07T05:09:21;12.90;99.90
28171;DHT22;15458;53.346;-1.688;2023-05-07T05:11:47;12.90;99.90
28171;DHT22;15458;53.346;-1.688;2023-05-07T05:14:12;12.90;99.90
28171;DHT22;15458;53.346;-1.688;2023-05-07T05:16:38;13.00;99.90
28171;DHT22;15458;53.346;-1.688;2023-05-07T05:19:04;13.00;99.90
28171;DHT22;15458;53.346;-1.688;2023-05-07T05:21:30;13.00;99.90
28171;DHT22;15458;53.346;-1.688;2023-05-07T05:23:56;13.00;99.90
28171;DHT22;15458;53.346;-1.688;2023-05-07T05:26:21;13.00;99.90
28171;DHT22;15458;53.346;-1.688;2023-05-07T05:28:47;13.00;99.90
28171;DHT22;15458;53.346;-1.688;2023-05-07T05:31:13;13.00;99.90
28171;DHT22;15458;53.346;-1.688;2023-05-07T05:33:39;13.00;99.90
28171;DHT22;15458;53.346;-1.688;2023-05-07T05:36:06;13.00;99.90
28171;DHT22;15458;53.346;-1.688;2023-05-07T05:38:32;13.00;99.90
28171;DHT22;15458;53.346;-1.688;2023-05-07T05:40:57;13.00;99.90
28171;DHT22;15458;53.346;-1.688;2023-05-07T05:43:23;13.00;99.90
28171;DHT22;15458;53.346;-1.688;2023-05-07T05:45:49;13.00;99.90
28171;DHT22;15458;53.346;-1.688;2023-05-07T05:48:14;13.00;99.90
28171;DHT22;15458;53.346;-1.688;2023-05-07T05:50:41;13.00;99.90
28171;DHT22;15458;53.346;-1.688;2023-05-07T05:53:07;13.00;99.90
28171;DHT22;15458;53.346;-1.688;2023-05-07T05:55:33;13.00;99.90
28171;DHT22;15458;53.346;-1.688;2023-05-07T05:58:02;13.00;99.90
28171;DHT22;15458;53.346;-1.688;2023-05-07T06:00:29;13.10;99.90
28171;DHT22;15458;53.346;-1.688;2023-05-07T06:02:54;13.10;99.90
28171;DHT22;15458;53.346;-1.688;2023-05-07T06:05:20;13.10;99.90
28171;DHT22;15458;53.346;-1.688;2023-05-07T06:07:46;13.10;99.90
28171;DHT22;15458;53.346;-1.688;2023-05-07T06:10:12;13.10;99.90
28171;DHT22;15458;53.346;-1.688;2023-05-07T06:12:37;13.20;99.90
28171;DHT22;15458;53.346;-1.688;2023-05-07T06:15:04;13.20;99.90
28171;DHT22;15458;53.346;-1.688;2023-05-07T06:17:29;13.20;99.90
28171;DHT22;15458;53.346;-1.688;2023-05-07T06:19:56;13.20;99.90
28171;DHT22;15458;53.346;-1.688;2023-05-07T06:22:21;13.30;99.90
28171;DHT22;15458;53.346;-1.688;2023-05-07T06:24:47;13.30;99.90
28171;DHT22;15458;53.346;-1.688;2023-05-07T06:27:13;13.30;99.90
28171;DHT22;15458;53.346;-1.688;2023-05-07T06:29:38;13.40;99.90
28171;DHT22;15458;53.346;-1.688;2023-05-07T06:32:12;13.40;99.90
28171;DHT22;15458;53.346;-1.688;2023-05-07T06:34:39;13.50;99.90
28171;DHT22;15458;53.346;-1.688;2023-05-07T06:37:06;13.50;99.90
28171;DHT22;15458;53.346;-1.688;2023-05-07T06:39:32;13.50;99.90
28171;DHT22;15458;53.346;-1.688;2023-05-07T06:41:58;13.60;99.90
28171;DHT22;15458;53.346;-1.688;2023-05-07T06:44:24;13.60;99.90
28171;DHT22;15458;53.346;-1.688;2023-05-07T06:46:49;13.60;99.90
28171;DHT22;15458;53.346;-1.688;2023-05-07T06:49:15;13.60;99.90
28171;DHT22;15458;53.346;-1.688;2023-05-07T06:51:41;13.70;99.90
28171;DHT22;15458;53.346;-1.688;2023-05-07T06:54:07;13.70;99.90
28171;DHT22;15458;53.346;-1.688;2023-05-07T06:56:33;13.70;99.90
28171;DHT22;15458;53.346;-1.688;2023-05-07T06:59:02;13.70;99.90
28171;DHT22;15458;53.346;-1.688;2023-05-07T07:01:28;13.70;99.90
28171;DHT22;15458;53.346;-1.688;2023-05-07T07:03:54;13.80;99.90
28171;DHT22;15458;53.346;-1.688;2023-05-07T07:06:20;13.80;99.90
28171;DHT22;15458;53.346;-1.688;2023-05-07T07:08:46;13.90;99.90
28171;DHT22;15458;53.346;-1.688;2023-05-07T07:11:11;13.90;99.90
28171;DHT22;15458;53.346;-1.688;2023-05-07T07:13:37;13.90;99.90
28171;DHT22;15458;53.346;-1.688;2023-05-07T07:16:03;14.00;99.90
28171;DHT22;15458;53.346;-1.688;2023-05-07T07:18:29;14.00;99.90
28171;DHT22;15458;53.346;-1.688;2023-05-07T07:20:55;14.10;99.90
28171;DHT22;15458;53.346;-1.688;2023-05-07T07:23:20;14.10;99.90
28171;DHT22;15458;53.346;-1.688;2023-05-07T07:25:46;14.10;99.90
28171;DHT22;15458;53.346;-1.688;2023-05-07T07:28:12;14.20;99.90
28171;DHT22;15458;53.346;-1.688;2023-05-07T07:30:38;14.20;99.90
28171;DHT22;15458;53.346;-1.688;2023-05-07T07:33:04;14.20;99.90
28171;DHT22;15458;53.346;-1.688;2023-05-07T07:35:33;14.20;99.90
28171;DHT22;15458;53.346;-1.688;2023-05-07T07:37:59;14.20;99.90
28171;DHT22;15458;53.346;-1.688;2023-05-07T07:40:26;14.30;99.90
28171;DHT22;15458;53.346;-1.688;2023-05-07T07:42:52;14.30;99.90
28171;DHT22;15458;53.346;-1.688;2023-05-07T07:45:18;14.30;99.90
28171;DHT22;15458;53.346;-1.688;2023-05-07T07:47:43;14.20;99.90
28171;DHT22;15458;53.346;-1.688;2023-05-07T07:50:09;14.30;99.90
28171;DHT22;15458;53.346;-1.688;2023-05-07T07:52:35;14.30;99.90
28171;DHT22;15458;53.346;-1.688;2023-05-07T07:55:01;14.30;99.90
28171;DHT22;15458;53.346;-1.688;2023-05-07T07:57:27;14.30;99.90
28171;DHT22;15458;53.346;-1.688;2023-05-07T07:59:53;14.30;99.90
28171;DHT22;15458;53.346;-1.688;2023-05-07T08:02:18;14.40;99.90
28171;DHT22;15458;53.346;-1.688;2023-05-07T08:04:44;14.40;99.90
28171;DHT22;15458;53.346;-1.688;2023-05-07T08:07:10;14.40;99.90
28171;DHT22;15458;53.346;-1.688;2023-05-07T08:09:37;14.40;99.90
28171;DHT22;15458;53.346;-1.688;2023-05-07T08:12:04;14.40;99.90
28171;DHT22;15458;53.346;-1.688;2023-05-07T08:14:29;14.40;99.90
28171;DHT22;15458;53.346;-1.688;2023-05-07T08:16:55;14.40;99.90
28171;DHT22;15458;53.346;-1.688;2023-05-07T08:19:21;14.50;99.90
28171;DHT22;15458;53.346;-1.688;2023-05-07T08:21:48;14.40;99.90
28171;DHT22;15458;53.346;-1.688;2023-05-07T08:24:14;14.50;99.90
28171;DHT22;15458;53.346;-1.688;2023-05-07T08:26:40;14.50;99.90
28171;DHT22;15458;53.346;-1.688;2023-05-07T08:29:06;14.50;99.90
28171;DHT22;15458;53.346;-1.688;2023-05-07T08:31:32;14.60;99.90
28171;DHT22;15458;53.346;-1.688;2023-05-07T08:33:58;14.60;99.90
28171;DHT22;15458;53.346;-1.688;2023-05-07T08:36:24;14.60;99.90
28171;DHT22;15458;53.346;-1.688;2023-05-07T08:38:51;14.60;99.90
28171;DHT22;15458;53.346;-1.688;2023-05-07T08:41:17;14.70;99.90
28171;DHT22;15458;53.346;-1.688;2023-05-07T08:43:47;14.70;99.90
28171;DHT22;15458;53.346;-1.688;2023-05-07T08:46:17;14.80;99.90
28171;DHT22;15458;53.346;-1.688;2023-05-07T08:48:44;14.90;99.90
28171;DHT22;15458;53.346;-1.688;2023-05-07T08:51:12;15.00;99.90
28171;DHT22;15458;53.346;-1.688;2023-05-07T08:53:40;15.00;99.90
28171;DHT22;15458;53.346;-1.688;2023-05-07T08:56:08;15.10;99.90
28171;DHT22;15458;53.346;-1.688;2023-05-07T08:58:34;15.10;99.90
28171;DHT22;15458;53.346;-1.688;2023-05-07T09:01:03;15.20;99.90
28171;DHT22;15458;53.346;-1.688;2023-05-07T09:03:31;15.20;99.90
28171;DHT22;15458;53.346;-1.688;2023-05-07T09:05:57;15.30;99.90
28171;DHT22;15458;53.346;-1.688;2023-05-07T09:08:25;15.40;99.90
28171;DHT22;15458;53.346;-1.688;2023-05-07T09:10:52;15.40;99.90
28171;DHT22;15458;53.346;-1.688;2023-05-07T09:13:18;15.50;99.90
28171;DHT22;15458;53.346;-1.688;2023-05-07T09:15:43;15.60;99.90
28171;DHT22;15458;53.346;-1.688;2023-05-07T09:18:09;15.70;99.90
28171;DHT22;15458;53.346;-1.688;2023-05-07T09:20:40;15.90;99.90
28171;DHT22;15458;53.346;-1.688;2023-05-07T09:23:08;15.90;99.90
28171;DHT22;15458;53.346;-1.688;2023-05-07T09:25:35;15.90;99.90
28171;DHT22;15458;53.346;-1.688;2023-05-07T09:28:02;16.00;99.90
28171;DHT22;15458;53.346;-1.688;2023-05-07T09:30:32;16.00;99.90
28171;DHT22;15458;53.346;-1.688;2023-05-07T09:32:58;16.10;99.90
28171;DHT22;15458;53.346;-1.688;2023-05-07T09:35:26;16.20;99.90
28171;DHT22;15458;53.346;-1.688;2023-05-07T09:37:57;16.30;99.90
28171;DHT22;15458;53.346;-1.688;2023-05-07T09:40:24;16.50;99.90
28171;DHT22;15458;53.346;-1.688;2023-05-07T09:42:51;16.60;99.90
28171;DHT22;15458;53.346;-1.688;2023-05-07T09:45:30;16.60;99.90
28171;DHT22;15458;53.346;-1.688;2023-05-07T09:47:58;16.60;99.90
28171;DHT22;15458;53.346;-1.688;2023-05-07T09:50:29;16.60;99.90
28171;DHT22;15458;53.346;-1.688;2023-05-07T09:52:56;16.60;99.90
28171;DHT22;15458;53.346;-1.688;2023-05-07T09:55:22;16.50;99.90
28171;DHT22;15458;53.346;-1.688;2023-05-07T09:57:51;16.50;99.90
28171;DHT22;15458;53.346;-1.688;2023-05-07T10:00:19;16.60;99.90
28171;DHT22;15458;53.346;-1.688;2023-05-07T10:02:51;16.70;99.90
28171;DHT22;15458;53.346;-1.688;2023-05-07T10:05:21;16.70;99.90
28171;DHT22;15458;53.346;-1.688;2023-05-07T10:07:48;16.90;99.90
28171;DHT22;15458;53.346;-1.688;2023-05-07T10:10:14;16.90;99.90
28171;DHT22;15458;53.346;-1.688;2023-05-07T10:12:43;16.90;99.90
28171;DHT22;15458;53.346;-1.688;2023-05-07T10:15:11;17.00;99.90
28171;DHT22;15458;53.346;-1.688;2023-05-07T10:17:41;17.10;99.90
28171;DHT22;15458;53.346;-1.688;2023-05-07T10:20:07;17.20;99.90
28171;DHT22;15458;53.346;-1.688;2023-05-07T10:22:46;17.30;99.90
28171;DHT22;15458;53.346;-1.688;2023-05-07T10:25:29;17.40;99.90
28171;DHT22;15458;53.346;-1.688;2023-05-07T10:27:57;17.50;99.90
28171;DHT22;15458;53.346;-1.688;2023-05-07T10:33:32;17.70;99.90
28171;DHT22;15458;53.346;-1.688;2023-05-07T10:36:00;17.70;99.90
28171;DHT22;15458;53.346;-1.688;2023-05-07T10:38:27;17.70;99.90
28171;DHT22;15458;53.346;-1.688;2023-05-07T10:40:54;17.80;99.90
28171;DHT22;15458;53.346;-1.688;2023-05-07T10:43:21;17.90;99.90
28171;DHT22;15458;53.346;-1.688;2023-05-07T10:46:16;17.90;99.90
28171;DHT22;15458;53.346;-1.688;2023-05-07T10:51:26;18.10;99.90
28171;DHT22;15458;53.346;-1.688;2023-05-07T10:56:37;18.60;99.90
28171;DHT22;15458;53.346;-1.688;2023-05-07T11:02:00;19.10;99.90
28171;DHT22;15458;53.346;-1.688;2023-05-07T11:04:31;19.30;99.90
28171;DHT22;15458;53.346;-1.688;2023-05-07T11:12:17;19.60;99.70
28171;DHT22;15458;53.346;-1.688;2023-05-07T11:14:44;19.70;99.10
28171;DHT22;15458;53.346;-1.688;2023-05-07T11:17:11;19.90;97.90
28171;DHT22;15458;53.346;-1.688;2023-05-07T11:19:54;20.00;96.50
28171;DHT22;15458;53.346;-1.688;2023-05-07T11:25:00;20.30;95.60
28171;DHT22;15458;53.346;-1.688;2023-05-07T11:27:26;20.40;94.70
28171;DHT22;15458;53.346;-1.688;2023-05-07T11:29:52;20.40;94.20
28171;DHT22;15458;53.346;-1.688;2023-05-07T11:32:31;20.40;92.80
28171;DHT22;15458;53.346;-1.688;2023-05-07T11:34:59;20.30;92.10
28171;DHT22;15458;53.346;-1.688;2023-05-07T11:37:26;20.20;92.00
28171;DHT22;15458;53.346;-1.688;2023-05-07T11:40:06;20.40;92.30
28171;DHT22;15458;53.346;-1.688;2023-05-07T11:42:34;20.60;91.90
28171;DHT22;15458;53.346;-1.688;2023-05-07T11:45:01;20.70;91.60
28171;DHT22;15458;53.346;-1.688;2023-05-07T11:47:30;20.80;91.40
28171;DHT22;15458;53.346;-1.688;2023-05-07T11:49:55;21.00;90.80
28171;DHT22;15458;53.346;-1.688;2023-05-07T11:52:23;21.10;90.00
28171;DHT22;15458;53.346;-1.688;2023-05-07T11:54:53;21.40;89.00
28171;DHT22;15458;53.346;-1.688;2023-05-07T11:57:21;21.50;86.00
28171;DHT22;15458;53.346;-1.688;2023-05-07T11:59:46;21.70;84.90
28171;DHT22;15458;53.346;-1.688;2023-05-07T12:02:16;21.60;83.90
28171;DHT22;15458;53.346;-1.688;2023-05-07T12:04:42;21.60;83.60
28171;DHT22;15458;53.346;-1.688;2023-05-07T12:07:15;21.30;83.30
28171;DHT22;15458;53.346;-1.688;2023-05-07T12:09:41;21.20;83.90
28171;DHT22;15458;53.346;-1.688;2023-05-07T12:12:07;21.30;83.50
28171;DHT22;15458;53.346;-1.688;2023-05-07T12:14:39;21.50;84.10
28171;DHT22;15458;53.346;-1.688;2023-05-07T12:17:05;21.80;83.10
28171;DHT22;15458;53.346;-1.688;2023-05-07T12:19:33;22.10;82.10
28171;DHT22;15458;53.346;-1.688;2023-05-07T12:22:02;22.40;81.10
28171;DHT22;15458;53.346;-1.688;2023-05-07T12:24:28;22.60;77.90
28171;DHT22;15458;53.346;-1.688;2023-05-07T12:26:54;22.70;77.40
28171;DHT22;15458;53.346;-1.688;2023-05-07T12:29:23;22.90;76.50
28171;DHT22;15458;53.346;-1.688;2023-05-07T12:31:50;23.20;76.20
28171;DHT22;15458;53.346;-1.688;2023-05-07T12:34:16;23.50;75.20
28171;DHT22;15458;53.346;-1.688;2023-05-07T12:36:41;23.60;74.10
28171;DHT22;15458;53.346;-1.688;2023-05-07T12:39:08;23.60;74.10
28171;DHT22;15458;53.346;-1.688;2023-05-07T12:41:56;23.50;74.10
28171;DHT22;15458;53.346;-1.688;2023-05-07T12:44:33;23.40;72.40
28171;DHT22;15458;53.346;-1.688;2023-05-07T12:47:02;23.30;73.00
28171;DHT22;15458;53.346;-1.688;2023-05-07T12:49:28;23.40;72.90
28171;DHT22;15458;53.346;-1.688;2023-05-07T12:51:54;23.50;72.50
28171;DHT22;15458;53.346;-1.688;2023-05-07T12:54:37;23.70;71.50
28171;DHT22;15458;53.346;-1.688;2023-05-07T12:57:08;23.80;71.10
28171;DHT22;15458;53.346;-1.688;2023-05-07T12:59:39;23.70;71.10
28171;DHT22;15458;53.346;-1.688;2023-05-07T13:02:05;23.50;71.40
28171;DHT22;15458;53.346;-1.688;2023-05-07T13:04:31;23.40;71.60
28171;DHT22;15458;53.346;-1.688;2023-05-07T13:06:57;23.30;71.80
28171;DHT22;15458;53.346;-1.688;2023-05-07T13:09:23;23.50;71.90
28171;DHT22;15458;53.346;-1.688;2023-05-07T13:11:48;23.70;70.80
28171;DHT22;15458;53.346;-1.688;2023-05-07T13:14:14;23.90;70.10
28171;DHT22;15458;53.346;-1.688;2023-05-07T13:16:40;24.10;69.50
28171;DHT22;15458;53.346;-1.688;2023-05-07T13:19:06;24.30;68.70
28171;DHT22;15458;53.346;-1.688;2023-05-07T13:21:31;24.40;67.40
28171;DHT22;15458;53.346;-1.688;2023-05-07T13:23:58;24.40;66.80
28171;DHT22;15458;53.346;-1.688;2023-05-07T13:26:24;24.40;66.30
28171;DHT22;15458;53.346;-1.688;2023-05-07T13:28:50;24.30;63.90
28171;DHT22;15458;53.346;-1.688;2023-05-07T13:31:17;24.10;64.20
28171;DHT22;15458;53.346;-1.688;2023-05-07T13:33:43;24.10;64.80
28171;DHT22;15458;53.346;-1.688;2023-05-07T13:36:09;24.10;65.00
28171;DHT22;15458;53.346;-1.688;2023-05-07T13:38:34;24.10;65.60
28171;DHT22;15458;53.346;-1.688;2023-05-07T13:41:03;24.30;65.40
28171;DHT22;15458;53.346;-1.688;2023-05-07T13:43:29;24.30;64.90
28171;DHT22;15458;53.346;-1.688;2023-05-07T13:45:55;24.50;65.20
28171;DHT22;15458;53.346;-1.688;2023-05-07T13:48:20;24.80;65.00
28171;DHT22;15458;53.346;-1.688;2023-05-07T13:50:46;25.00;63.70
28171;DHT22;15458;53.346;-1.688;2023-05-07T13:53:11;25.10;62.60
28171;DHT22;15458;53.346;-1.688;2023-05-07T13:55:37;25.00;61.00
28171;DHT22;15458;53.346;-1.688;2023-05-07T13:58:03;25.00;61.20
28171;DHT22;15458;53.346;-1.688;2023-05-07T14:00:29;24.90;61.40
28171;DHT22;15458;53.346;-1.688;2023-05-07T14:02:55;24.80;61.60
28171;DHT22;15458;53.346;-1.688;2023-05-07T14:05:22;24.80;62.10
28171;DHT22;15458;53.346;-1.688;2023-05-07T14:07:51;24.70;62.70
28171;DHT22;15458;53.346;-1.688;2023-05-07T14:10:18;24.50;63.00
28171;DHT22;15458;53.346;-1.688;2023-05-07T14:12:44;24.40;63.50
28171;DHT22;15458;53.346;-1.688;2023-05-07T14:15:10;24.50;64.10
28171;DHT22;15458;53.346;-1.688;2023-05-07T14:17:36;24.40;64.30
28171;DHT22;15458;53.346;-1.688;2023-05-07T14:20:02;24.50;64.30
28171;DHT22;15458;53.346;-1.688;2023-05-07T14:22:28;24.60;64.40
28171;DHT22;15458;53.346;-1.688;2023-05-07T14:24:53;24.90;64.30
28171;DHT22;15458;53.346;-1.688;2023-05-07T14:27:19;25.00;63.80
28171;DHT22;15458;53.346;-1.688;2023-05-07T14:29:44;25.30;63.50
28171;DHT22;15458;53.346;-1.688;2023-05-07T14:32:11;25.10;62.50
28171;DHT22;15458;53.346;-1.688;2023-05-07T14:34:36;24.80;62.70
28171;DHT22;15458;53.346;-1.688;2023-05-07T14:37:02;24.50;63.20
28171;DHT22;15458;53.346;-1.688;2023-05-07T14:39:28;24.40;63.40
28171;DHT22;15458;53.346;-1.688;2023-05-07T14:41:54;24.20;63.80
28171;DHT22;15458;53.346;-1.688;2023-05-07T14:44:21;24.00;64.00
28171;DHT22;15458;53.346;-1.688;2023-05-07T14:46:47;23.80;64.10
28171;DHT22;15458;53.346;-1.688;2023-05-07T14:49:14;23.60;64.20
28171;DHT22;15458;53.346;-1.688;2023-05-07T14:51:43;23.50;64.50
28171;DHT22;15458;53.346;-1.688;2023-05-07T14:54:09;23.40;65.00
28171;DHT22;15458;53.346;-1.688;2023-05-07T14:56:35;23.50;66.30
28171;DHT22;15458;53.346;-1.688;2023-05-07T14:59:02;23.70;65.90
28171;DHT22;15458;53.346;-1.688;2023-05-07T15:01:28;23.90;65.70
28171;DHT22;15458;53.346;-1.688;2023-05-07T15:03:54;24.10;65.20
28171;DHT22;15458;53.346;-1.688;2023-05-07T15:06:21;24.00;64.70
28171;DHT22;15458;53.346;-1.688;2023-05-07T15:08:46;23.80;65.00
28171;DHT22;15458;53.346;-1.688;2023-05-07T15:11:13;23.60;65.30
28171;DHT22;15458;53.346;-1.688;2023-05-07T15:13:39;23.40;65.30
28171;DHT22;15458;53.346;-1.688;2023-05-07T15:16:05;23.10;65.80
28171;DHT22;15458;53.346;-1.688;2023-05-07T15:18:31;22.80;66.60
28171;DHT22;15458;53.346;-1.688;2023-05-07T15:20:56;22.90;67.20
28171;DHT22;15458;53.346;-1.688;2023-05-07T15:23:23;23.10;67.30
28171;DHT22;15458;53.346;-1.688;2023-05-07T15:25:48;23.40;66.90
28171;DHT22;15458;53.346;-1.688;2023-05-07T15:28:14;23.70;65.70
28171;DHT22;15458;53.346;-1.688;2023-05-07T15:30:40;23.70;65.40
28171;DHT22;15458;53.346;-1.688;2023-05-07T15:33:05;23.60;65.10
28171;DHT22;15458;53.346;-1.688;2023-05-07T15:35:31;23.60;65.10